This is the latest recevied weather packets stored in our database for station/object KJ5EHN. If no packets are shown the sender has not sent any weather packets the latest 1 day(s).
| Time | Temp. | Humidity | Pressure | Rain* | Wind** | Luminosity | Snow |
|---|---|---|---|---|---|---|---|
| 1836274577 | 25° C | 78% | 1016.5 hPa | 0 mm | 0 m/s | - | - |
| 1836274431 | 24.44° C | 79% | 1016.4 hPa | 0 mm | 0 m/s | - | - |
| 1836274275 | 25° C | 78% | 1016.3 hPa | 0 mm | 0 m/s | - | - |
| 1836274129 | 24.44° C | 79% | 1016.4 hPa | 0 mm | 0 m/s | - | - |
| 1836273975 | 25° C | 77% | 1016.5 hPa | 0 mm | 0.45 m/s, 42° | - | - |
| 1778057187 | 12.22° C | 78% | 1010.2 hPa | 0 mm | 0 m/s | - | - |
| 1778056884 | 12.22° C | 78% | 1010.4 hPa | 0 mm | 0.45 m/s, 287° | - | - |
| 1778056581 | 12.78° C | 77% | 1010.5 hPa | 0 mm | 0.45 m/s, 199° | - | - |
| 1778056278 | 12.78° C | 77% | 1010.2 hPa | 0 mm | 0 m/s | - | - |
| 1778055975 | 12.78° C | 77% | 1010 hPa | 0 mm | 0 m/s | - | - |
| 1778055670 | 12.78° C | 77% | 1010.1 hPa | 0 mm | 0.45 m/s, 177° | - | - |
| 1778055369 | 12.78° C | 77% | 1010.4 hPa | 0 mm | 0.45 m/s, 156° | - | - |
| 1778055066 | 12.78° C | 77% | 1010.3 hPa | 0 mm | 0.89 m/s, 183° | - | - |
| 1778054764 | 12.78° C | 77% | 1009.8 hPa | 0 mm | 0.45 m/s, 229° | - | - |
| 1778054460 | 12.78° C | 77% | 1009.9 hPa | 0 mm | 0.45 m/s, 130° | - | - |
| 1778054158 | 12.78° C | 77% | 1009.8 hPa | 0 mm | 1.34 m/s, 104° | - | - |
| 1778053855 | 12.78° C | 77% | 1009.8 hPa | 0 mm | 0.89 m/s, 102° | - | - |
| 1778053552 | 13.33° C | 77% | 1009.7 hPa | 0 mm | 0.89 m/s, 178° | - | - |
| 1778053249 | 12.78° C | 77% | 1009.5 hPa | 0 mm | 0.89 m/s, 135° | - | - |
| 1778052947 | 12.78° C | 77% | 1009.5 hPa | 0 mm | 1.79 m/s, 127° | - | - |
| 1778052644 | 13.33° C | 77% | 1009.6 hPa | 0 mm | 0.89 m/s, 65° | - | - |
| 1778052341 | 12.78° C | 77% | 1009.8 hPa | 0 mm | 0.89 m/s, 143° | - | - |
| 1778052039 | 13.33° C | 77% | 1009.8 hPa | 0 mm | 0.89 m/s, 146° | - | - |
| 1778051736 | 13.33° C | 77% | 1009.5 hPa | 0 mm | 0.45 m/s, 144° | - | - |
| 1778051434 | 13.33° C | 77% | 1009.8 hPa | 0 mm | 0.89 m/s, 330° | - | - |
* Rain latest hour (hover to see other rain measurements)
** Current wind speed in m/s (hover to see current wind gust speed)